Maersk Lanco — VRLI7 — position and weather

sailwx.info

Track history (hours):
 
Tides and Currents Weather Stations Pressure Air Temp Water Temp Dewpoint Dewpoint Depression Visibility Wind Speed Wind Dir Waves Ship Positions

Maersk Lanco

Last reported at 2018-Jan-21 16:31 UTC. Time now 2018-Jan-21 16:42 UTC.
Position N 53°36' E 008°31'.

Length 300 m; draft 10 m.

Type: Ship. MMSI: 477182700.

Date/timePositionNaut miles runAvg speedWind from/ knotsBaromVisibWave heightAir tempDewpointWater temp
2018-Jan-21 16:31N 53°36' E 008°31'3 5.5
2018-Jan-21 16:01N 53°38' E 008°28'714.5
2018-Jan-21 15:30N 53°43' E 008°19'714.7
2018-Jan-21 15:00N 53°47' E 008°09'714.5
2018-Jan-21 14:30N 53°51' E 007°59'713.2
2018-Jan-21 14:00N 53°52' E 007°48'713.7
2018-Jan-21 13:30N 53°54' E 007°36'916.9
2018-Jan-21 12:59N 53°53' E 007°21'3218.2
2018-Jan-21 11:14N 53°45' E 006°29'1318.3
2018-Jan-21 10:32N 53°42' E 006°08'118.5
2018-Jan-21 10:28N 53°42' E 006°06'2218.3
2018-Jan-21 09:14N 53°34' E 005°30'518.4
2018-Jan-21 08:59N 53°33' E 005°23'918.3
2018-Jan-21 08:30N 53°30' E 005°09'919.0
2018-Jan-21 08:00N 53°26' E 004°54'918.2
2018-Jan-21 07:30N 53°21' E 004°42'1019.7
2018-Jan-21 07:00N 53°12' E 004°33'919.1
2018-Jan-21 06:30N 53°04' E 004°25'918.8
2018-Jan-21 06:00N 52°56' E 004°17'918.7
2018-Jan-21 05:30N 52°48' E 004°10'917.5
2018-Jan-21 05:00N 52°42' E 003°59'917.6
2018-Jan-21 04:30N 52°37' E 003°47'917.5
2018-Jan-21 04:00N 52°31' E 003°36'816.6
2018-Jan-21 03:30N 52°27' E 003°24'5815.3
2018-Jan-20 23:43N 51°53' E 002°08'314.6
2018-Jan-20 23:31N 51°51' E 002°04'714.5
2018-Jan-20 23:00N 51°48' E 001°53'714.8
2018-Jan-20 22:31N 51°50' E 001°42'510.0
2018-Jan-20 22:00N 51°49' E 001°34'714.9
2018-Jan-20 21:30N 51°43' E 001°29'815.6
2018-Jan-20 21:00N 51°37' E 001°20'817.0
2018-Jan-20 20:30N 51°33' E 001°08'917.1
2018-Jan-20 20:00N 51°29' E 000°56'816.4
2018-Jan-20 19:30N 51°30' E 000°43'713.8
2018-Jan-20 19:01N 51°30' E 000°32'1 2.3
2018-Jan-20 18:30N 51°30' E 000°30'0 0.0
2018-Jan-20 18:01N 51°30' E 000°30'0 0.0
2018-Jan-20 17:31N 51°30' E 000°30'0 0.0
2018-Jan-20 17:00N 51°30' E 000°30'0 0.0
2018-Jan-20 16:31N 51°30' E 000°30'0 0.0
2018-Jan-20 16:01N 51°30' E 000°30'0 0.0
2018-Jan-20 15:30N 51°30' E 000°30'0 0.0
2018-Jan-20 15:01N 51°30' E 000°30'0 0.0
2018-Jan-20 14:31N 51°30' E 000°30'0 0.0
2018-Jan-20 14:00N 51°30' E 000°30'0 0.0
2018-Jan-20 13:31N 51°30' E 000°30'0 0.0
2018-Jan-20 13:00N 51°30' E 000°30'0 0.0
2018-Jan-20 12:30N 51°30' E 000°30'0 0.0
2018-Jan-20 12:01N 51°30' E 000°30'0 0.0
2018-Jan-20 11:30N 51°30' E 000°30'0 0.0
2018-Jan-20 11:01N 51°30' E 000°30'0 0.0
2018-Jan-20 10:30N 51°30' E 000°30'0 0.0
2018-Jan-20 10:00N 51°30' E 000°30'0 0.0
2018-Jan-20 09:30N 51°30' E 000°30'0 0.1
2018-Jan-20 09:00N 51°30' E 000°30'0 0.1
2018-Jan-20 08:30N 51°30' E 000°30'0 0.0
2018-Jan-20 08:00N 51°30' E 000°30'0 0.0
2018-Jan-20 07:30N 51°30' E 000°30'0 0.0
2018-Jan-20 07:00N 51°30' E 000°30'0 0.0
2018-Jan-20 06:30N 51°30' E 000°30'0 0.0
2018-Jan-20 06:01N 51°30' E 000°30'0 0.1
2018-Jan-20 05:31N 51°30' E 000°30'0 0.0
2018-Jan-20 05:01N 51°30' E 000°30'0 0.0
2018-Jan-20 04:30N 51°30' E 000°30'0 0.0
2018-Jan-20 04:00N 51°30' E 000°30'0 0.0
2018-Jan-20 03:30N 51°30' E 000°30'0 0.1
2018-Jan-20 03:01N 51°30' E 000°30'2 3.1
2018-Jan-20 02:30N 51°30' E 000°32'612.9
2018-Jan-20 02:00N 51°30' E 000°43'714.8
2018-Jan-20 01:30N 51°29' E 000°54'816.0
2018-Jan-20 01:00N 51°32' E 001°07'816.0
2018-Jan-20 00:31N 51°36' E 001°17'713.0
2018-Jan-20 00:00N 51°40' E 001°25'713.4
2018-Jan-19 23:30N 51°46' E 001°31'612.5
2018-Jan-19 23:01N 51°51' E 001°37'4 7.1
2018-Jan-19 22:31N 51°51' E 001°42'510.6
2018-Jan-19 22:01N 51°50' E 001°50'713.4
2018-Jan-19 21:30N 51°52' E 002°01'713.9
2018-Jan-19 21:01N 51°55' E 002°11'3312.7
2018-Jan-19 18:25N 52°02' E 003°03'1012.1
2018-Jan-19 17:37N 52°04' E 003°19'112.6
2018-Jan-19 17:30N 52°04' E 003°21'612.1
2018-Jan-19 16:59N 52°04' E 003°31'612.0
2018-Jan-19 16:30N 52°03' E 003°40'611.4
2018-Jan-19 16:00N 52°03' E 003°49'3 6.9
2018-Jan-19 15:30N 52°02' E 003°55'611.7
2018-Jan-19 15:00N 51°59' E 004°03'2 3.4
2018-Jan-19 14:30N 51°58' E 004°03'0 0.1
2018-Jan-19 13:59N 51°58' E 004°03'0 0.0
2018-Jan-19 13:29N 51°58' E 004°03'0 0.0
2018-Jan-19 12:59N 51°58' E 004°03'0 0.0
2018-Jan-19 12:29N 51°58' E 004°03'0 0.0
2018-Jan-19 11:59N 51°58' E 004°03'0 0.0
2018-Jan-19 11:29N 51°58' E 004°03'0 0.0
2018-Jan-19 10:59N 51°58' E 004°03'0 0.0
2018-Jan-19 10:29N 51°58' E 004°03'0 0.0
2018-Jan-19 09:59N 51°58' E 004°03'0 0.0
2018-Jan-19 09:29N 51°58' E 004°03'0 0.0
2018-Jan-19 08:59N 51°58' E 004°03'0 0.0
2018-Jan-19 08:29N 51°58' E 004°03'0 0.0
2018-Jan-19 07:59N 51°58' E 004°03'0 0.0
2018-Jan-19 07:29N 51°58' E 004°03'0 0.0
2018-Jan-19 06:59N 51°58' E 004°03'0 0.0
2018-Jan-19 06:29N 51°58' E 004°03'0 0.0
2018-Jan-19 05:59N 51°58' E 004°03'0 0.0
2018-Jan-19 05:29N 51°58' E 004°03'0 0.0
2018-Jan-19 04:59N 51°58' E 004°03'0 0.0
2018-Jan-19 04:29N 51°58' E 004°03'0 0.0
2018-Jan-19 03:59N 51°58' E 004°03'0 0.0
2018-Jan-19 03:29N 51°58' E 004°03'0 0.0
2018-Jan-19 02:59N 51°58' E 004°03'0 0.0
2018-Jan-19 02:29N 51°58' E 004°03'0 0.0
2018-Jan-19 01:59N 51°58' E 004°03'0 0.0
2018-Jan-19 01:26N 51°58' E 004°03'0 0.0
2018-Jan-19 00:59N 51°58' E 004°03'0 0.0
2018-Jan-19 00:29N 51°58' E 004°03'0 0.0
2018-Jan-18 23:59N 51°58' E 004°03'0 0.0
2018-Jan-18 23:29N 51°58' E 004°03'0 0.0
2018-Jan-18 22:59N 51°58' E 004°03'0 0.0
2018-Jan-18 22:29N 51°58' E 004°03'0 0.0
2018-Jan-18 21:59N 51°58' E 004°03'0 0.0
2018-Jan-18 21:29N 51°58' E 004°03'1 1.8
2018-Jan-18 21:00N 51°58' E 004°05'3 6.8
2018-Jan-18 20:31N 51°60' E 004°00'714.5
2018-Jan-18 20:00N 52°00' E 003°48'4 8.2
2018-Jan-18 19:30N 51°59' E 003°42'612.0
2018-Jan-18 19:00N 51°57' E 003°33'611.1
2018-Jan-18 18:30N 51°56' E 003°24'3812.6
2018-Jan-18 15:30N 51°40' E 002°29'1020.6
2018-Jan-18 15:00N 51°33' E 002°17'1020.8
2018-Jan-18 14:30N 51°25' E 002°06'1021.0
2018-Jan-18 14:00N 51°17' E 001°54'1121.4
2018-Jan-18 13:31N 51°09' E 001°44'1121.8
2018-Jan-18 13:01N 50°60' E 001°34'1122.4
2018-Jan-18 12:30N 50°50' E 001°26'1120.9
2018-Jan-18 12:00N 50°41' E 001°17'1020.8
2018-Jan-18 11:30N 50°34' E 001°05'1122.2
2018-Jan-18 11:00N 50°30' E 000°49'1223.4
2018-Jan-18 10:30N 50°26' E 000°31'1223.7
2018-Jan-18 10:01N 50°23' E 000°13'1224.0
2018-Jan-18 09:30N 50°20' W 000°05'1224.1
2018-Jan-18 09:00N 50°17' W 000°23'1224.4
2018-Jan-18 08:31N 50°14' W 000°41'1224.2
2018-Jan-18 08:01N 50°10' W 000°59'5223.7
2018-Jan-18 05:48N 49°56' W 002°18'722.3
2018-Jan-18 05:29N 49°54' W 002°28'1122.0
2018-Jan-18 05:01N 49°51' W 002°44'1121.7
2018-Jan-18 04:31N 49°47' W 002°59'1121.3
2018-Jan-18 04:00N 49°41' W 003°14'1321.6
2018-Jan-18 03:26N 49°35' W 003°30'2021.5
2018-Jan-18 02:31N 49°27' W 003°58'4820.8
2018-Jan-18 00:13N 49°01' W 004°60'420.4
2018-Jan-18 00:00N 48°59' W 005°05'120.1
2018-Jan-17 23:57N 48°58' W 005°06'  
2018-Jan-12 04:25N 10°17' W 016°40'921.6
2018-Jan-12 04:01N 10°09' W 016°35'1121.8
2018-Jan-12 03:31N 10°00' W 016°29'1122.0
2018-Jan-12 03:01N 09°51' W 016°22'1121.8
2018-Jan-12 02:30N 09°42' W 016°16'1322.1
2018-Jan-12 01:56N 09°32' W 016°09'1322.1
2018-Jan-12 01:21N 09°21' W 016°01'822.2
2018-Jan-12 01:00N 09°15' W 015°57'1122.0
2018-Jan-12 00:29N 09°06' W 015°50'1122.0
2018-Jan-12 00:00N 08°57' W 015°44'1122.1
2018-Jan-11 23:30N 08°48' W 015°37'1121.9
2018-Jan-11 23:01N 08°40' W 015°31'1722.1
2018-Jan-11 22:14N 08°26' W 015°20'522.3
2018-Jan-11 22:01N 08°22' W 015°17'2122.4
2018-Jan-11 21:04N 08°04' W 015°05'122.3
2018-Jan-11 21:00N 08°03' W 015°05'1122.1
2018-Jan-11 20:30N 07°54' W 014°58'1122.3
2018-Jan-11 20:00N 07°45' W 014°52'1122.2
2018-Jan-11 19:31N 07°36' W 014°45'1122.2
2018-Jan-11 19:01N 07°27' W 014°39'1322.1
2018-Jan-11 18:26N 07°16' W 014°31'3221.9
2018-Jan-11 16:58N 06°50' W 014°13'  
Track history (hours):
 
Tides and Currents Weather Stations Pressure Air Temp Water Temp Dewpoint Dewpoint Depression Visibility Wind Speed Wind Dir Waves Ship Positions

Maersk Lanco

Last reported at 2018-Jan-21 16:31 UTC. Time now 2018-Jan-21 16:42 UTC.
Position N 53°36' E 008°31'.

Length 300 m; draft 10 m.

Type: Ship. MMSI: 477182700.

Date/timePositionNaut miles runAvg speedWind from/ knotsBaromVisibWave heightAir tempDewpointWater temp
2018-Jan-21 16:31N 53°36' E 008°31'3 5.5
2018-Jan-21 16:01N 53°38' E 008°28'714.5
2018-Jan-21 15:30N 53°43' E 008°19'714.7
2018-Jan-21 15:00N 53°47' E 008°09'714.5
2018-Jan-21 14:30N 53°51' E 007°59'713.2
2018-Jan-21 14:00N 53°52' E 007°48'713.7
2018-Jan-21 13:30N 53°54' E 007°36'916.9
2018-Jan-21 12:59N 53°53' E 007°21'3218.2
2018-Jan-21 11:14N 53°45' E 006°29'1318.3
2018-Jan-21 10:32N 53°42' E 006°08'118.5
2018-Jan-21 10:28N 53°42' E 006°06'2218.3
2018-Jan-21 09:14N 53°34' E 005°30'518.4
2018-Jan-21 08:59N 53°33' E 005°23'918.3
2018-Jan-21 08:30N 53°30' E 005°09'919.0
2018-Jan-21 08:00N 53°26' E 004°54'918.2
2018-Jan-21 07:30N 53°21' E 004°42'1019.7
2018-Jan-21 07:00N 53°12' E 004°33'919.1
2018-Jan-21 06:30N 53°04' E 004°25'918.8
2018-Jan-21 06:00N 52°56' E 004°17'918.7
2018-Jan-21 05:30N 52°48' E 004°10'917.5
2018-Jan-21 05:00N 52°42' E 003°59'917.6
2018-Jan-21 04:30N 52°37' E 003°47'917.5
2018-Jan-21 04:00N 52°31' E 003°36'816.6
2018-Jan-21 03:30N 52°27' E 003°24'5815.3
2018-Jan-20 23:43N 51°53' E 002°08'314.6
2018-Jan-20 23:31N 51°51' E 002°04'714.5
2018-Jan-20 23:00N 51°48' E 001°53'714.8
2018-Jan-20 22:31N 51°50' E 001°42'510.0
2018-Jan-20 22:00N 51°49' E 001°34'714.9
2018-Jan-20 21:30N 51°43' E 001°29'815.6
2018-Jan-20 21:00N 51°37' E 001°20'817.0
2018-Jan-20 20:30N 51°33' E 001°08'917.1
2018-Jan-20 20:00N 51°29' E 000°56'816.4
2018-Jan-20 19:30N 51°30' E 000°43'713.8
2018-Jan-20 19:01N 51°30' E 000°32'1 2.3
2018-Jan-20 18:30N 51°30' E 000°30'0 0.0
2018-Jan-20 18:01N 51°30' E 000°30'0 0.0
2018-Jan-20 17:31N 51°30' E 000°30'0 0.0
2018-Jan-20 17:00N 51°30' E 000°30'0 0.0
2018-Jan-20 16:31N 51°30' E 000°30'0 0.0
2018-Jan-20 16:01N 51°30' E 000°30'0 0.0
2018-Jan-20 15:30N 51°30' E 000°30'0 0.0
2018-Jan-20 15:01N 51°30' E 000°30'0 0.0
2018-Jan-20 14:31N 51°30' E 000°30'0 0.0
2018-Jan-20 14:00N 51°30' E 000°30'0 0.0
2018-Jan-20 13:31N 51°30' E 000°30'0 0.0
2018-Jan-20 13:00N 51°30' E 000°30'0 0.0
2018-Jan-20 12:30N 51°30' E 000°30'0 0.0
2018-Jan-20 12:01N 51°30' E 000°30'0 0.0
2018-Jan-20 11:30N 51°30' E 000°30'0 0.0
2018-Jan-20 11:01N 51°30' E 000°30'0 0.0
2018-Jan-20 10:30N 51°30' E 000°30'0 0.0
2018-Jan-20 10:00N 51°30' E 000°30'0 0.0
2018-Jan-20 09:30N 51°30' E 000°30'0 0.1
2018-Jan-20 09:00N 51°30' E 000°30'0 0.1
2018-Jan-20 08:30N 51°30' E 000°30'0 0.0
2018-Jan-20 08:00N 51°30' E 000°30'0 0.0
2018-Jan-20 07:30N 51°30' E 000°30'0 0.0
2018-Jan-20 07:00N 51°30' E 000°30'0 0.0
2018-Jan-20 06:30N 51°30' E 000°30'0 0.0
2018-Jan-20 06:01N 51°30' E 000°30'0 0.1
2018-Jan-20 05:31N 51°30' E 000°30'0 0.0
2018-Jan-20 05:01N 51°30' E 000°30'0 0.0
2018-Jan-20 04:30N 51°30' E 000°30'0 0.0
2018-Jan-20 04:00N 51°30' E 000°30'0 0.0
2018-Jan-20 03:30N 51°30' E 000°30'0 0.1
2018-Jan-20 03:01N 51°30' E 000°30'2 3.1
2018-Jan-20 02:30N 51°30' E 000°32'612.9
2018-Jan-20 02:00N 51°30' E 000°43'714.8
2018-Jan-20 01:30N 51°29' E 000°54'816.0
2018-Jan-20 01:00N 51°32' E 001°07'816.0
2018-Jan-20 00:31N 51°36' E 001°17'713.0
2018-Jan-20 00:00N 51°40' E 001°25'713.4
2018-Jan-19 23:30N 51°46' E 001°31'612.5
2018-Jan-19 23:01N 51°51' E 001°37'4 7.1
2018-Jan-19 22:31N 51°51' E 001°42'510.6
2018-Jan-19 22:01N 51°50' E 001°50'713.4
2018-Jan-19 21:30N 51°52' E 002°01'713.9
2018-Jan-19 21:01N 51°55' E 002°11'3312.7
2018-Jan-19 18:25N 52°02' E 003°03'1012.1
2018-Jan-19 17:37N 52°04' E 003°19'112.6
2018-Jan-19 17:30N 52°04' E 003°21'612.1
2018-Jan-19 16:59N 52°04' E 003°31'612.0
2018-Jan-19 16:30N 52°03' E 003°40'611.4
2018-Jan-19 16:00N 52°03' E 003°49'3 6.9
2018-Jan-19 15:30N 52°02' E 003°55'611.7
2018-Jan-19 15:00N 51°59' E 004°03'2 3.4
2018-Jan-19 14:30N 51°58' E 004°03'0 0.1
2018-Jan-19 13:59N 51°58' E 004°03'0 0.0
2018-Jan-19 13:29N 51°58' E 004°03'0 0.0
2018-Jan-19 12:59N 51°58' E 004°03'0 0.0
2018-Jan-19 12:29N 51°58' E 004°03'0 0.0
2018-Jan-19 11:59N 51°58' E 004°03'0 0.0
2018-Jan-19 11:29N 51°58' E 004°03'0 0.0
2018-Jan-19 10:59N 51°58' E 004°03'0 0.0
2018-Jan-19 10:29N 51°58' E 004°03'0 0.0
2018-Jan-19 09:59N 51°58' E 004°03'0 0.0
2018-Jan-19 09:29N 51°58' E 004°03'0 0.0
2018-Jan-19 08:59N 51°58' E 004°03'0 0.0
2018-Jan-19 08:29N 51°58' E 004°03'0 0.0
2018-Jan-19 07:59N 51°58' E 004°03'0 0.0
2018-Jan-19 07:29N 51°58' E 004°03'0 0.0
2018-Jan-19 06:59N 51°58' E 004°03'0 0.0
2018-Jan-19 06:29N 51°58' E 004°03'0 0.0
2018-Jan-19 05:59N 51°58' E 004°03'0 0.0
2018-Jan-19 05:29N 51°58' E 004°03'0 0.0
2018-Jan-19 04:59N 51°58' E 004°03'0 0.0
2018-Jan-19 04:29N 51°58' E 004°03'0 0.0
2018-Jan-19 03:59N 51°58' E 004°03'0 0.0
2018-Jan-19 03:29N 51°58' E 004°03'0 0.0
2018-Jan-19 02:59N 51°58' E 004°03'0 0.0
2018-Jan-19 02:29N 51°58' E 004°03'0 0.0
2018-Jan-19 01:59N 51°58' E 004°03'0 0.0
2018-Jan-19 01:26N 51°58' E 004°03'0 0.0
2018-Jan-19 00:59N 51°58' E 004°03'0 0.0
2018-Jan-19 00:29N 51°58' E 004°03'0 0.0
2018-Jan-18 23:59N 51°58' E 004°03'0 0.0
2018-Jan-18 23:29N 51°58' E 004°03'0 0.0
2018-Jan-18 22:59N 51°58' E 004°03'0 0.0
2018-Jan-18 22:29N 51°58' E 004°03'0 0.0
2018-Jan-18 21:59N 51°58' E 004°03'0 0.0
2018-Jan-18 21:29N 51°58' E 004°03'1 1.8
2018-Jan-18 21:00N 51°58' E 004°05'3 6.8
2018-Jan-18 20:31N 51°60' E 004°00'714.5
2018-Jan-18 20:00N 52°00' E 003°48'4 8.2
2018-Jan-18 19:30N 51°59' E 003°42'612.0
2018-Jan-18 19:00N 51°57' E 003°33'611.1
2018-Jan-18 18:30N 51°56' E 003°24'3812.6
2018-Jan-18 15:30N 51°40' E 002°29'1020.6
2018-Jan-18 15:00N 51°33' E 002°17'1020.8
2018-Jan-18 14:30N 51°25' E 002°06'1021.0
2018-Jan-18 14:00N 51°17' E 001°54'1121.4
2018-Jan-18 13:31N 51°09' E 001°44'1121.8
2018-Jan-18 13:01N 50°60' E 001°34'1122.4
2018-Jan-18 12:30N 50°50' E 001°26'1120.9
2018-Jan-18 12:00N 50°41' E 001°17'1020.8
2018-Jan-18 11:30N 50°34' E 001°05'1122.2
2018-Jan-18 11:00N 50°30' E 000°49'1223.4
2018-Jan-18 10:30N 50°26' E 000°31'1223.7
2018-Jan-18 10:01N 50°23' E 000°13'1224.0
2018-Jan-18 09:30N 50°20' W 000°05'1224.1
2018-Jan-18 09:00N 50°17' W 000°23'1224.4
2018-Jan-18 08:31N 50°14' W 000°41'1224.2
2018-Jan-18 08:01N 50°10' W 000°59'5223.7
2018-Jan-18 05:48N 49°56' W 002°18'722.3
2018-Jan-18 05:29N 49°54' W 002°28'1122.0
2018-Jan-18 05:01N 49°51' W 002°44'1121.7
2018-Jan-18 04:31N 49°47' W 002°59'1121.3
2018-Jan-18 04:00N 49°41' W 003°14'1321.6
2018-Jan-18 03:26N 49°35' W 003°30'2021.5
2018-Jan-18 02:31N 49°27' W 003°58'4820.8
2018-Jan-18 00:13N 49°01' W 004°60'420.4
2018-Jan-18 00:00N 48°59' W 005°05'120.1
2018-Jan-17 23:57N 48°58' W 005°06'  
2018-Jan-12 04:25N 10°17' W 016°40'921.6
2018-Jan-12 04:01N 10°09' W 016°35'1121.8
2018-Jan-12 03:31N 10°00' W 016°29'1122.0
2018-Jan-12 03:01N 09°51' W 016°22'1121.8
2018-Jan-12 02:30N 09°42' W 016°16'1322.1
2018-Jan-12 01:56N 09°32' W 016°09'1322.1
2018-Jan-12 01:21N 09°21' W 016°01'822.2
2018-Jan-12 01:00N 09°15' W 015°57'1122.0
2018-Jan-12 00:29N 09°06' W 015°50'1122.0
2018-Jan-12 00:00N 08°57' W 015°44'1122.1
2018-Jan-11 23:30N 08°48' W 015°37'1121.9
2018-Jan-11 23:01N 08°40' W 015°31'1722.1
2018-Jan-11 22:14N 08°26' W 015°20'522.3
2018-Jan-11 22:01N 08°22' W 015°17'2122.4
2018-Jan-11 21:04N 08°04' W 015°05'122.3
2018-Jan-11 21:00N 08°03' W 015°05'1122.1
2018-Jan-11 20:30N 07°54' W 014°58'1122.3
2018-Jan-11 20:00N 07°45' W 014°52'1122.2
2018-Jan-11 19:31N 07°36' W 014°45'1122.2
2018-Jan-11 19:01N 07°27' W 014°39'1322.1
2018-Jan-11 18:26N 07°16' W 014°31'3221.9
2018-Jan-11 16:58N 06°50' W 014°13'  

Dump ship's entire track history